Ever Develop — 3FLF8 — position and weather

sailwx.info

Track history (hours):
 
Tides and Currents Weather Stations Pressure Air Temp Water Temp Dewpoint Dewpoint Depression Visibility Wind Speed Wind Dir Waves Ship Positions

Ever Develop

Last reported at 2016-Aug-14 10:33 UTC. Time now 2016-Aug-27 02:57 UTC.
Position N 01°13' E 103°33'.
Warning: this ship's position is 12 days out of date.

Type: Ship (hazmat cat D). MMSI: 356391000.

Date/timePositionNaut miles runAvg speedWind from/ knotsBaromVisibWave heightAir tempDewpointWater temp
2016-Aug-14 10:33N 01°13' E 103°33'1312.9
2016-Aug-14 09:33N 01°09' E 103°45'1211.5
2016-Aug-14 08:33N 01°14' E 103°55'  
2016-Aug-10 17:07N 22°18' E 114°06'15 2.2
2016-Aug-10 10:24N 22°27' E 113°53'0 0.0
2016-Aug-10 09:12N 22°27' E 113°53'0 0.0
2016-Aug-10 08:24N 22°27' E 113°53'0 0.0
2016-Aug-10 07:30N 22°27' E 113°53'0 0.0
2016-Aug-10 06:24N 22°27' E 113°53'0 0.0
2016-Aug-10 05:30N 22°27' E 113°53'2 2.2
2016-Aug-10 04:33N 22°25' E 113°53'11 9.9
2016-Aug-10 03:29N 22°22' E 114°04'25817.2
2016-Aug-09 12:28N 24°10' E 118°20'1213.5
2016-Aug-09 11:34N 24°19' E 118°11'1111.0
2016-Aug-09 10:33N 24°27' E 118°03'3 3.4
2016-Aug-09 09:33N 24°31' E 118°05'0 0.0
2016-Aug-09 08:33N 24°31' E 118°05'0 0.0
2016-Aug-09 07:30N 24°31' E 118°05'0 0.0
2016-Aug-09 05:33N 24°31' E 118°05'0 0.0
2016-Aug-09 04:30N 24°31' E 118°05'0 0.0
2016-Aug-09 03:24N 24°31' E 118°05'2 2.2
2016-Aug-09 02:33N 24°29' E 118°04'9 9.5
2016-Aug-09 01:33N 24°21' E 118°10'8 8.0
2016-Aug-09 00:33N 24°15' E 118°15'4 4.3
2016-Aug-08 23:33N 24°12' E 118°19'6 6.0
2016-Aug-08 22:33N 24°12' E 118°25'1414.6
2016-Aug-08 21:33N 24°12' E 118°41'1515.0
2016-Aug-08 20:33N 24°15' E 118°57'1715.2
2016-Aug-08 19:27N 24°20' E 119°15'340 7.4
2016-Aug-06 21:19N 29°08' E 122°38'1215.9
2016-Aug-06 20:33N 29°19' E 122°33'1716.5
2016-Aug-06 19:30N 29°37' E 122°32'1313.4
2016-Aug-06 18:33N 29°44' E 122°20'1211.5
2016-Aug-06 17:33N 29°53' E 122°11'6 6.3
2016-Aug-06 16:32N 29°53' E 122°04'0 0.0
2016-Aug-06 14:20N 29°53' E 122°04'0 0.0
2016-Aug-06 12:20N 29°53' E 122°04'0 0.0
2016-Aug-06 11:20N 29°53' E 122°04'0 0.0
2016-Aug-06 08:32N 29°53' E 122°04'0 0.0
2016-Aug-06 04:20N 29°53' E 122°04'0 0.0
2016-Aug-06 02:32N 29°53' E 122°04'0 0.0
2016-Aug-06 01:26N 29°53' E 122°04'0 0.0
2016-Aug-06 00:26N 29°53' E 122°04'0 0.0
2016-Aug-05 20:13N 29°53' E 122°04'1 2.0
2016-Aug-05 19:33N 29°54' E 122°05'6 5.8
2016-Aug-05 18:33N 29°53' E 122°11'1110.5
2016-Aug-05 17:28N 29°45' E 122°21'1111.8
2016-Aug-05 16:33N 29°42' E 122°33'8 7.6
2016-Aug-05 15:31N 29°43' E 122°41'9810.6
2016-Aug-05 06:13N 31°15' E 121°60'1810.0
2016-Aug-05 04:25N 31°20' E 121°40'0 0.0
2016-Aug-05 02:22N 31°20' E 121°40'0 0.1
2016-Aug-05 01:25N 31°20' E 121°40'0 0.0
2016-Aug-05 00:31N 31°20' E 121°40'0 0.0
2016-Aug-04 23:25N 31°20' E 121°40'0 0.0
2016-Aug-04 22:28N 31°20' E 121°40'0 0.0
2016-Aug-04 21:25N 31°20' E 121°40'0 0.0
2016-Aug-04 20:28N 31°20' E 121°40'0 0.0
2016-Aug-04 19:22N 31°20' E 121°40'0 0.0
2016-Aug-04 18:28N 31°20' E 121°40'0 0.0
2016-Aug-04 17:28N 31°20' E 121°40'0 0.0
2016-Aug-04 16:19N 31°20' E 121°40'0 0.0
2016-Aug-04 15:28N 31°20' E 121°40'0 0.0
2016-Aug-04 14:28N 31°20' E 121°40'0 0.0
2016-Aug-04 13:31N 31°20' E 121°40'0 0.0
2016-Aug-04 12:31N 31°20' E 121°40'0 0.0
2016-Aug-04 11:28N 31°20' E 121°40'  
Track history (hours):
 
Tides and Currents Weather Stations Pressure Air Temp Water Temp Dewpoint Dewpoint Depression Visibility Wind Speed Wind Dir Waves Ship Positions

Ever Develop

Last reported at 2016-Aug-14 10:33 UTC. Time now 2016-Aug-27 02:57 UTC.
Position N 01°13' E 103°33'.
Warning: this ship's position is 12 days out of date.

Type: Ship (hazmat cat D). MMSI: 356391000.

Date/timePositionNaut miles runAvg speedWind from/ knotsBaromVisibWave heightAir tempDewpointWater temp
2016-Aug-14 10:33N 01°13' E 103°33'1312.9
2016-Aug-14 09:33N 01°09' E 103°45'1211.5
2016-Aug-14 08:33N 01°14' E 103°55'  
2016-Aug-10 17:07N 22°18' E 114°06'15 2.2
2016-Aug-10 10:24N 22°27' E 113°53'0 0.0
2016-Aug-10 09:12N 22°27' E 113°53'0 0.0
2016-Aug-10 08:24N 22°27' E 113°53'0 0.0
2016-Aug-10 07:30N 22°27' E 113°53'0 0.0
2016-Aug-10 06:24N 22°27' E 113°53'0 0.0
2016-Aug-10 05:30N 22°27' E 113°53'2 2.2
2016-Aug-10 04:33N 22°25' E 113°53'11 9.9
2016-Aug-10 03:29N 22°22' E 114°04'25817.2
2016-Aug-09 12:28N 24°10' E 118°20'1213.5
2016-Aug-09 11:34N 24°19' E 118°11'1111.0
2016-Aug-09 10:33N 24°27' E 118°03'3 3.4
2016-Aug-09 09:33N 24°31' E 118°05'0 0.0
2016-Aug-09 08:33N 24°31' E 118°05'0 0.0
2016-Aug-09 07:30N 24°31' E 118°05'0 0.0
2016-Aug-09 05:33N 24°31' E 118°05'0 0.0
2016-Aug-09 04:30N 24°31' E 118°05'0 0.0
2016-Aug-09 03:24N 24°31' E 118°05'2 2.2
2016-Aug-09 02:33N 24°29' E 118°04'9 9.5
2016-Aug-09 01:33N 24°21' E 118°10'8 8.0
2016-Aug-09 00:33N 24°15' E 118°15'4 4.3
2016-Aug-08 23:33N 24°12' E 118°19'6 6.0
2016-Aug-08 22:33N 24°12' E 118°25'1414.6
2016-Aug-08 21:33N 24°12' E 118°41'1515.0
2016-Aug-08 20:33N 24°15' E 118°57'1715.2
2016-Aug-08 19:27N 24°20' E 119°15'340 7.4
2016-Aug-06 21:19N 29°08' E 122°38'1215.9
2016-Aug-06 20:33N 29°19' E 122°33'1716.5
2016-Aug-06 19:30N 29°37' E 122°32'1313.4
2016-Aug-06 18:33N 29°44' E 122°20'1211.5
2016-Aug-06 17:33N 29°53' E 122°11'6 6.3
2016-Aug-06 16:32N 29°53' E 122°04'0 0.0
2016-Aug-06 14:20N 29°53' E 122°04'0 0.0
2016-Aug-06 12:20N 29°53' E 122°04'0 0.0
2016-Aug-06 11:20N 29°53' E 122°04'0 0.0
2016-Aug-06 08:32N 29°53' E 122°04'0 0.0
2016-Aug-06 04:20N 29°53' E 122°04'0 0.0
2016-Aug-06 02:32N 29°53' E 122°04'0 0.0
2016-Aug-06 01:26N 29°53' E 122°04'0 0.0
2016-Aug-06 00:26N 29°53' E 122°04'0 0.0
2016-Aug-05 20:13N 29°53' E 122°04'1 2.0
2016-Aug-05 19:33N 29°54' E 122°05'6 5.8
2016-Aug-05 18:33N 29°53' E 122°11'1110.5
2016-Aug-05 17:28N 29°45' E 122°21'1111.8
2016-Aug-05 16:33N 29°42' E 122°33'8 7.6
2016-Aug-05 15:31N 29°43' E 122°41'9810.6
2016-Aug-05 06:13N 31°15' E 121°60'1810.0
2016-Aug-05 04:25N 31°20' E 121°40'0 0.0
2016-Aug-05 02:22N 31°20' E 121°40'0 0.1
2016-Aug-05 01:25N 31°20' E 121°40'0 0.0
2016-Aug-05 00:31N 31°20' E 121°40'0 0.0
2016-Aug-04 23:25N 31°20' E 121°40'0 0.0
2016-Aug-04 22:28N 31°20' E 121°40'0 0.0
2016-Aug-04 21:25N 31°20' E 121°40'0 0.0
2016-Aug-04 20:28N 31°20' E 121°40'0 0.0
2016-Aug-04 19:22N 31°20' E 121°40'0 0.0
2016-Aug-04 18:28N 31°20' E 121°40'0 0.0
2016-Aug-04 17:28N 31°20' E 121°40'0 0.0
2016-Aug-04 16:19N 31°20' E 121°40'0 0.0
2016-Aug-04 15:28N 31°20' E 121°40'0 0.0
2016-Aug-04 14:28N 31°20' E 121°40'0 0.0
2016-Aug-04 13:31N 31°20' E 121°40'0 0.0
2016-Aug-04 12:31N 31°20' E 121°40'0 0.0
2016-Aug-04 11:28N 31°20' E 121°40'  

Dump ship's entire track history